sensor_id;sensor_type;location;lat;lon;timestamp;P1;durP1;ratioP1;P2;durP2;ratioP2
13475;SDS011;6810;63.824;20.288;2022-10-16T09:19:51;1.43;;;0.60;;
13475;SDS011;6810;63.824;20.288;2022-10-16T09:22:26;0.40;;;0.37;;
13475;SDS011;6810;63.824;20.288;2022-10-16T09:25:18;0.50;;;0.50;;
13475;SDS011;6810;63.824;20.288;2022-10-16T09:28:07;1.30;;;0.50;;
13475;SDS011;6810;63.824;20.288;2022-10-16T09:30:56;1.60;;;0.70;;
13475;SDS011;6810;63.824;20.288;2022-10-16T09:33:43;1.00;;;0.50;;
13475;SDS011;6810;63.824;20.288;2022-10-16T09:36:42;0.73;;;0.50;;
13475;SDS011;6810;63.824;20.288;2022-10-16T09:39:31;0.63;;;0.47;;
13475;SDS011;6810;63.824;20.288;2022-10-16T09:42:34;0.67;;;0.47;;
13475;SDS011;6810;63.824;20.288;2022-10-16T09:45:23;0.50;;;0.50;;
13475;SDS011;6810;63.824;20.288;2022-10-16T09:48:11;0.30;;;0.30;;
13475;SDS011;6810;63.824;20.288;2022-10-16T09:51:00;0.40;;;0.30;;
13475;SDS011;6810;63.824;20.288;2022-10-16T09:53:53;1.00;;;0.50;;
13475;SDS011;6810;63.824;20.288;2022-10-16T09:56:45;0.63;;;0.60;;
13475;SDS011;6810;63.824;20.288;2022-10-16T09:59:32;0.57;;;0.43;;
13475;SDS011;6810;63.824;20.288;2022-10-16T10:02:23;1.53;;;0.60;;
13475;SDS011;6810;63.824;20.288;2022-10-16T10:05:47;0.40;;;0.40;;
13475;SDS011;6810;63.824;20.288;2022-10-16T10:08:27;0.53;;;0.50;;
13475;SDS011;6810;63.824;20.288;2022-10-16T10:11:15;1.23;;;0.60;;
13475;SDS011;6810;63.824;20.288;2022-10-16T10:14:05;1.90;;;0.67;;
13475;SDS011;6810;63.824;20.288;2022-10-16T10:20:24;2.57;;;1.50;;
13475;SDS011;6810;63.824;20.288;2022-10-16T10:23:23;1.50;;;1.10;;
13475;SDS011;6810;63.824;20.288;2022-10-16T10:26:20;2.70;;;1.13;;
13475;SDS011;6810;63.824;20.288;2022-10-16T10:44:19;4.23;;;2.50;;
13475;SDS011;6810;63.824;20.288;2022-10-16T10:47:24;3.23;;;2.33;;
13475;SDS011;6810;63.824;20.288;2022-10-16T10:50:22;4.83;;;2.83;;
13475;SDS011;6810;63.824;20.288;2022-10-16T10:56:22;5.97;;;3.37;;
13475;SDS011;6810;63.824;20.288;2022-10-16T11:02:04;5.40;;;3.50;;
13475;SDS011;6810;63.824;20.288;2022-10-16T11:07:44;5.47;;;3.20;;
13475;SDS011;6810;63.824;20.288;2022-10-16T11:10:44;8.20;;;3.90;;
13475;SDS011;6810;63.824;20.288;2022-10-16T11:13:38;6.37;;;4.00;;
13475;SDS011;6810;63.824;20.288;2022-10-16T11:16:40;6.50;;;3.90;;
13475;SDS011;6810;63.824;20.288;2022-10-16T11:26:23;5.33;;;3.03;;
13475;SDS011;6810;63.824;20.288;2022-10-16T11:29:16;3.80;;;3.13;;
13475;SDS011;6810;63.824;20.288;2022-10-16T11:32:17;4.27;;;2.80;;
13475;SDS011;6810;63.824;20.288;2022-10-16T11:35:15;4.00;;;3.00;;
13475;SDS011;6810;63.824;20.288;2022-10-16T11:38:09;4.07;;;2.80;;
13475;SDS011;6810;63.824;20.288;2022-10-16T11:41:26;4.50;;;2.53;;
13475;SDS011;6810;63.824;20.288;2022-10-16T11:53:16;3.73;;;2.73;;
13475;SDS011;6810;63.824;20.288;2022-10-16T11:56:05;2.93;;;2.30;;
13475;SDS011;6810;63.824;20.288;2022-10-16T12:02:27;3.70;;;2.23;;
13475;SDS011;6810;63.824;20.288;2022-10-16T12:08:17;3.33;;;2.00;;
13475;SDS011;6810;63.824;20.288;2022-10-16T12:11:24;4.03;;;2.23;;
13475;SDS011;6810;63.824;20.288;2022-10-16T12:23:19;2.20;;;2.00;;
13475;SDS011;6810;63.824;20.288;2022-10-16T12:26:07;2.50;;;1.90;;
13475;SDS011;6810;63.824;20.288;2022-10-16T12:28:55;2.97;;;1.90;;
13475;SDS011;6810;63.824;20.288;2022-10-16T12:31:45;2.10;;;1.80;;
13475;SDS011;6810;63.824;20.288;2022-10-16T12:34:41;2.20;;;2.00;;
13475;SDS011;6810;63.824;20.288;2022-10-16T12:37:34;2.17;;;1.70;;
13475;SDS011;6810;63.824;20.288;2022-10-16T12:40:26;2.57;;;2.03;;
13475;SDS011;6810;63.824;20.288;2022-10-16T12:52:01;3.77;;;2.00;;
13475;SDS011;6810;63.824;20.288;2022-10-16T12:54:48;4.13;;;2.33;;
13475;SDS011;6810;63.824;20.288;2022-10-16T13:14:03;1.93;;;1.60;;
13475;SDS011;6810;63.824;20.288;2022-10-16T13:23:13;2.47;;;1.50;;
13475;SDS011;6810;63.824;20.288;2022-10-16T13:28:58;2.07;;;1.47;;
13475;SDS011;6810;63.824;20.288;2022-10-16T13:31:46;2.07;;;1.70;;
13475;SDS011;6810;63.824;20.288;2022-10-16T13:34:41;2.67;;;1.80;;
13475;SDS011;6810;63.824;20.288;2022-10-16T13:37:31;2.00;;;1.60;;
13475;SDS011;6810;63.824;20.288;2022-10-16T13:40:19;4.20;;;1.73;;
13475;SDS011;6810;63.824;20.288;2022-10-16T13:43:08;3.13;;;1.77;;
13475;SDS011;6810;63.824;20.288;2022-10-16T13:46:00;2.40;;;1.53;;
13475;SDS011;6810;63.824;20.288;2022-10-16T13:48:58;4.67;;;2.00;;
13475;SDS011;6810;63.824;20.288;2022-10-16T13:52:15;2.37;;;1.70;;
13475;SDS011;6810;63.824;20.288;2022-10-16T13:55:14;3.27;;;2.00;;
13475;SDS011;6810;63.824;20.288;2022-10-16T13:58:07;2.97;;;1.70;;
13475;SDS011;6810;63.824;20.288;2022-10-16T14:00:59;2.60;;;1.73;;
13475;SDS011;6810;63.824;20.288;2022-10-16T14:04:04;3.13;;;2.03;;
13475;SDS011;6810;63.824;20.288;2022-10-16T14:06:53;3.23;;;1.90;;
13475;SDS011;6810;63.824;20.288;2022-10-16T14:09:48;2.57;;;1.80;;
13475;SDS011;6810;63.824;20.288;2022-10-16T14:12:37;2.57;;;1.90;;
13475;SDS011;6810;63.824;20.288;2022-10-16T14:15:24;1.77;;;1.63;;
13475;SDS011;6810;63.824;20.288;2022-10-16T14:18:15;1.93;;;1.67;;
13475;SDS011;6810;63.824;20.288;2022-10-16T14:21:10;4.33;;;1.93;;
13475;SDS011;6810;63.824;20.288;2022-10-16T14:24:10;4.67;;;1.80;;
13475;SDS011;6810;63.824;20.288;2022-10-16T14:27:30;2.70;;;1.60;;
13475;SDS011;6810;63.824;20.288;2022-10-16T14:30:21;1.77;;;1.20;;
13475;SDS011;6810;63.824;20.288;2022-10-16T14:33:20;2.07;;;0.80;;
13475;SDS011;6810;63.824;20.288;2022-10-16T14:41:50;0.70;;;0.70;;
13475;SDS011;6810;63.824;20.288;2022-10-16T14:44:38;0.97;;;0.50;;
13475;SDS011;6810;63.824;20.288;2022-10-16T14:47:26;0.40;;;0.40;;
13475;SDS011;6810;63.824;20.288;2022-10-16T14:50:13;0.50;;;0.30;;
13475;SDS011;6810;63.824;20.288;2022-10-16T14:53:00;0.90;;;0.63;;
13475;SDS011;6810;63.824;20.288;2022-10-16T14:55:47;0.40;;;0.40;;
13475;SDS011;6810;63.824;20.288;2022-10-16T14:58:34;0.20;;;0.20;;
13475;SDS011;6810;63.824;20.288;2022-10-16T15:01:21;1.23;;;0.30;;
13475;SDS011;6810;63.824;20.288;2022-10-16T15:04:09;0.67;;;0.30;;
13475;SDS011;6810;63.824;20.288;2022-10-16T15:06:59;0.30;;;0.30;;
13475;SDS011;6810;63.824;20.288;2022-10-16T15:09:48;0.60;;;0.40;;
13475;SDS011;6810;63.824;20.288;2022-10-16T15:12:36;0.40;;;0.30;;
13475;SDS011;6810;63.824;20.288;2022-10-16T15:15:24;0.20;;;0.20;;
13475;SDS011;6810;63.824;20.288;2022-10-16T15:18:17;0.10;;;0.10;;
13475;SDS011;6810;63.824;20.288;2022-10-16T15:21:04;0.17;;;0.17;;
13475;SDS011;6810;63.824;20.288;2022-10-16T15:23:52;0.20;;;0.20;;
13475;SDS011;6810;63.824;20.288;2022-10-16T15:26:44;0.10;;;0.10;;
13475;SDS011;6810;63.824;20.288;2022-10-16T15:29:34;0.10;;;0.00;;
13475;SDS011;6810;63.824;20.288;2022-10-16T15:32:21;0.10;;;0.10;;
13475;SDS011;6810;63.824;20.288;2022-10-16T15:35:08;0.10;;;0.10;;
13475;SDS011;6810;63.824;20.288;2022-10-16T15:37:56;0.40;;;0.17;;
13475;SDS011;6810;63.824;20.288;2022-10-16T15:40:44;0.20;;;0.20;;
13475;SDS011;6810;63.824;20.288;2022-10-16T15:43:32;0.40;;;0.30;;
13475;SDS011;6810;63.824;20.288;2022-10-16T15:46:20;0.43;;;0.40;;
13475;SDS011;6810;63.824;20.288;2022-10-16T15:49:08;0.57;;;0.30;;
13475;SDS011;6810;63.824;20.288;2022-10-16T15:51:56;0.13;;;0.13;;
13475;SDS011;6810;63.824;20.288;2022-10-16T15:54:43;0.10;;;0.10;;
13475;SDS011;6810;63.824;20.288;2022-10-16T15:57:30;0.20;;;0.20;;
13475;SDS011;6810;63.824;20.288;2022-10-16T16:00:18;0.40;;;0.40;;
13475;SDS011;6810;63.824;20.288;2022-10-16T16:03:09;0.40;;;0.17;;
13475;SDS011;6810;63.824;20.288;2022-10-16T16:05:57;0.30;;;0.10;;
13475;SDS011;6810;63.824;20.288;2022-10-16T16:08:45;0.30;;;0.10;;
13475;SDS011;6810;63.824;20.288;2022-10-16T16:11:31;0.83;;;0.20;;
13475;SDS011;6810;63.824;20.288;2022-10-16T16:14:19;0.10;;;0.10;;
13475;SDS011;6810;63.824;20.288;2022-10-16T16:17:06;0.10;;;0.10;;
13475;SDS011;6810;63.824;20.288;2022-10-16T16:19:53;0.20;;;0.10;;
13475;SDS011;6810;63.824;20.288;2022-10-16T16:22:40;0.10;;;0.10;;
13475;SDS011;6810;63.824;20.288;2022-10-16T16:25:27;0.10;;;0.10;;
13475;SDS011;6810;63.824;20.288;2022-10-16T16:28:14;0.10;;;0.10;;
13475;SDS011;6810;63.824;20.288;2022-10-16T16:31:01;0.10;;;0.10;;
13475;SDS011;6810;63.824;20.288;2022-10-16T16:33:28;0.30;;;0.10;;
13475;SDS011;6810;63.824;20.288;2022-10-16T16:36:15;0.20;;;0.20;;
13475;SDS011;6810;63.824;20.288;2022-10-16T16:39:02;0.10;;;0.10;;
13475;SDS011;6810;63.824;20.288;2022-10-16T16:41:49;0.20;;;0.20;;
13475;SDS011;6810;63.824;20.288;2022-10-16T16:44:37;0.10;;;0.10;;
13475;SDS011;6810;63.824;20.288;2022-10-16T16:47:24;0.20;;;0.20;;
13475;SDS011;6810;63.824;20.288;2022-10-16T16:50:11;0.20;;;0.20;;
13475;SDS011;6810;63.824;20.288;2022-10-16T16:52:58;0.23;;;0.20;;
13475;SDS011;6810;63.824;20.288;2022-10-16T16:55:45;1.03;;;0.23;;
13475;SDS011;6810;63.824;20.288;2022-10-16T16:58:32;0.10;;;0.10;;
13475;SDS011;6810;63.824;20.288;2022-10-16T17:01:19;0.10;;;0.10;;
13475;SDS011;6810;63.824;20.288;2022-10-16T17:04:08;0.20;;;0.10;;
13475;SDS011;6810;63.824;20.288;2022-10-16T17:06:55;0.40;;;0.20;;
13475;SDS011;6810;63.824;20.288;2022-10-16T17:09:46;0.30;;;0.10;;
13475;SDS011;6810;63.824;20.288;2022-10-16T17:12:33;0.20;;;0.10;;
13475;SDS011;6810;63.824;20.288;2022-10-16T17:15:25;0.27;;;0.27;;
13475;SDS011;6810;63.824;20.288;2022-10-16T17:18:11;0.30;;;0.30;;
13475;SDS011;6810;63.824;20.288;2022-10-16T17:20:59;0.47;;;0.40;;
13475;SDS011;6810;63.824;20.288;2022-10-16T17:23:51;0.30;;;0.30;;
13475;SDS011;6810;63.824;20.288;2022-10-16T17:26:38;0.47;;;0.20;;
13475;SDS011;6810;63.824;20.288;2022-10-16T17:29:25;0.27;;;0.20;;
13475;SDS011;6810;63.824;20.288;2022-10-16T17:31:54;0.13;;;0.10;;
13475;SDS011;6810;63.824;20.288;2022-10-16T17:34:22;0.10;;;0.00;;
13475;SDS011;6810;63.824;20.288;2022-10-16T17:37:09;0.00;;;0.00;;
13475;SDS011;6810;63.824;20.288;2022-10-16T17:39:56;0.17;;;0.10;;
13475;SDS011;6810;63.824;20.288;2022-10-16T17:42:43;0.10;;;0.00;;
13475;SDS011;6810;63.824;20.288;2022-10-16T17:45:30;0.10;;;0.10;;
13475;SDS011;6810;63.824;20.288;2022-10-16T17:48:18;0.00;;;0.00;;
13475;SDS011;6810;63.824;20.288;2022-10-16T17:51:05;0.10;;;0.03;;
13475;SDS011;6810;63.824;20.288;2022-10-16T17:53:56;0.00;;;0.00;;
13475;SDS011;6810;63.824;20.288;2022-10-16T17:56:44;0.10;;;0.10;;
13475;SDS011;6810;63.824;20.288;2022-10-16T17:59:31;0.10;;;0.10;;
13475;SDS011;6810;63.824;20.288;2022-10-16T18:02:18;0.20;;;0.10;;
13475;SDS011;6810;63.824;20.288;2022-10-16T18:05:05;0.20;;;0.10;;
13475;SDS011;6810;63.824;20.288;2022-10-16T18:07:52;0.10;;;0.10;;
13475;SDS011;6810;63.824;20.288;2022-10-16T18:10:45;0.03;;;0.03;;
13475;SDS011;6810;63.824;20.288;2022-10-16T18:13:33;0.10;;;0.07;;
13475;SDS011;6810;63.824;20.288;2022-10-16T18:16:20;0.67;;;0.10;;
13475;SDS011;6810;63.824;20.288;2022-10-16T18:19:09;0.27;;;0.10;;
13475;SDS011;6810;63.824;20.288;2022-10-16T18:21:57;0.20;;;0.20;;
13475;SDS011;6810;63.824;20.288;2022-10-16T18:24:44;0.10;;;0.10;;
13475;SDS011;6810;63.824;20.288;2022-10-16T18:27:32;0.27;;;0.20;;
13475;SDS011;6810;63.824;20.288;2022-10-16T18:30:19;0.13;;;0.10;;
13475;SDS011;6810;63.824;20.288;2022-10-16T18:33:06;1.03;;;0.40;;
13475;SDS011;6810;63.824;20.288;2022-10-16T18:35:53;0.40;;;0.20;;
13475;SDS011;6810;63.824;20.288;2022-10-16T18:38:40;0.50;;;0.30;;
13475;SDS011;6810;63.824;20.288;2022-10-16T18:41:27;0.20;;;0.10;;
13475;SDS011;6810;63.824;20.288;2022-10-16T18:44:15;0.47;;;0.10;;
13475;SDS011;6810;63.824;20.288;2022-10-16T18:47:02;0.27;;;0.27;;
13475;SDS011;6810;63.824;20.288;2022-10-16T18:49:49;0.10;;;0.10;;
13475;SDS011;6810;63.824;20.288;2022-10-16T18:52:37;0.07;;;0.07;;
13475;SDS011;6810;63.824;20.288;2022-10-16T18:55:24;0.10;;;0.10;;
13475;SDS011;6810;63.824;20.288;2022-10-16T18:58:11;0.17;;;0.00;;
13475;SDS011;6810;63.824;20.288;2022-10-16T19:01:02;0.20;;;0.20;;
13475;SDS011;6810;63.824;20.288;2022-10-16T19:03:57;0.20;;;0.20;;
13475;SDS011;6810;63.824;20.288;2022-10-16T19:06:50;0.17;;;0.13;;
13475;SDS011;6810;63.824;20.288;2022-10-16T19:09:39;0.50;;;0.30;;
13475;SDS011;6810;63.824;20.288;2022-10-16T19:12:26;0.30;;;0.30;;
13475;SDS011;6810;63.824;20.288;2022-10-16T19:15:13;0.43;;;0.30;;
13475;SDS011;6810;63.824;20.288;2022-10-16T19:18:00;0.37;;;0.30;;
13475;SDS011;6810;63.824;20.288;2022-10-16T19:20:52;0.40;;;0.20;;
13475;SDS011;6810;63.824;20.288;2022-10-16T19:23:40;0.40;;;0.27;;
13475;SDS011;6810;63.824;20.288;2022-10-16T19:26:28;0.20;;;0.20;;
13475;SDS011;6810;63.824;20.288;2022-10-16T19:29:17;0.50;;;0.10;;
13475;SDS011;6810;63.824;20.288;2022-10-16T19:32:05;0.10;;;0.10;;
13475;SDS011;6810;63.824;20.288;2022-10-16T19:34:52;0.50;;;0.10;;
13475;SDS011;6810;63.824;20.288;2022-10-16T19:37:39;0.10;;;0.10;;
13475;SDS011;6810;63.824;20.288;2022-10-16T19:40:26;0.00;;;0.00;;
13475;SDS011;6810;63.824;20.288;2022-10-16T19:43:13;0.30;;;0.00;;
13475;SDS011;6810;63.824;20.288;2022-10-16T19:46:04;0.00;;;0.00;;
13475;SDS011;6810;63.824;20.288;2022-10-16T19:48:59;0.17;;;0.03;;
13475;SDS011;6810;63.824;20.288;2022-10-16T19:51:48;0.10;;;0.10;;
13475;SDS011;6810;63.824;20.288;2022-10-16T19:54:36;0.50;;;0.10;;
13475;SDS011;6810;63.824;20.288;2022-10-16T19:57:23;0.20;;;0.10;;
13475;SDS011;6810;63.824;20.288;2022-10-16T20:00:11;0.00;;;0.00;;
13475;SDS011;6810;63.824;20.288;2022-10-16T20:02:58;0.00;;;0.00;;
13475;SDS011;6810;63.824;20.288;2022-10-16T20:05:55;0.10;;;0.00;;
13475;SDS011;6810;63.824;20.288;2022-10-16T20:08:43;0.07;;;0.03;;
13475;SDS011;6810;63.824;20.288;2022-10-16T20:11:32;0.20;;;0.10;;
13475;SDS011;6810;63.824;20.288;2022-10-16T20:14:21;0.00;;;0.00;;
13475;SDS011;6810;63.824;20.288;2022-10-16T20:17:08;0.00;;;0.00;;
13475;SDS011;6810;63.824;20.288;2022-10-16T20:19:55;0.63;;;0.10;;
13475;SDS011;6810;63.824;20.288;2022-10-16T20:22:42;0.57;;;0.10;;
13475;SDS011;6810;63.824;20.288;2022-10-16T20:25:33;0.10;;;0.10;;
13475;SDS011;6810;63.824;20.288;2022-10-16T20:28:26;0.20;;;0.03;;
13475;SDS011;6810;63.824;20.288;2022-10-16T20:31:14;0.07;;;0.00;;
13475;SDS011;6810;63.824;20.288;2022-10-16T20:34:10;0.10;;;0.10;;
13475;SDS011;6810;63.824;20.288;2022-10-16T20:36:58;0.10;;;0.10;;
13475;SDS011;6810;63.824;20.288;2022-10-16T20:39:45;0.10;;;0.10;;
13475;SDS011;6810;63.824;20.288;2022-10-16T20:42:33;0.50;;;0.10;;
13475;SDS011;6810;63.824;20.288;2022-10-16T20:45:20;0.40;;;0.20;;
13475;SDS011;6810;63.824;20.288;2022-10-16T20:48:07;0.27;;;0.00;;
13475;SDS011;6810;63.824;20.288;2022-10-16T20:50:55;0.10;;;0.10;;
13475;SDS011;6810;63.824;20.288;2022-10-16T20:53:42;0.27;;;0.10;;
13475;SDS011;6810;63.824;20.288;2022-10-16T20:56:31;0.10;;;0.10;;
13475;SDS011;6810;63.824;20.288;2022-10-16T20:59:20;0.10;;;0.10;;
13475;SDS011;6810;63.824;20.288;2022-10-16T21:02:08;0.10;;;0.10;;
13475;SDS011;6810;63.824;20.288;2022-10-16T21:04:55;0.40;;;0.10;;
13475;SDS011;6810;63.824;20.288;2022-10-16T21:07:42;0.00;;;0.00;;
13475;SDS011;6810;63.824;20.288;2022-10-16T21:10:29;0.10;;;0.10;;
13475;SDS011;6810;63.824;20.288;2022-10-16T21:13:16;0.20;;;0.13;;
13475;SDS011;6810;63.824;20.288;2022-10-16T21:16:03;0.10;;;0.10;;
13475;SDS011;6810;63.824;20.288;2022-10-16T21:18:51;0.10;;;0.03;;
13475;SDS011;6810;63.824;20.288;2022-10-16T21:21:38;0.23;;;0.10;;
13475;SDS011;6810;63.824;20.288;2022-10-16T21:24:25;0.20;;;0.10;;
13475;SDS011;6810;63.824;20.288;2022-10-16T21:27:12;0.13;;;0.13;;
13475;SDS011;6810;63.824;20.288;2022-10-16T21:29:59;0.37;;;0.20;;
13475;SDS011;6810;63.824;20.288;2022-10-16T21:32:46;0.10;;;0.10;;
13475;SDS011;6810;63.824;20.288;2022-10-16T21:35:33;0.17;;;0.17;;
13475;SDS011;6810;63.824;20.288;2022-10-16T21:38:21;0.20;;;0.20;;
13475;SDS011;6810;63.824;20.288;2022-10-16T21:41:18;0.00;;;0.00;;
13475;SDS011;6810;63.824;20.288;2022-10-16T21:44:07;0.10;;;0.10;;
13475;SDS011;6810;63.824;20.288;2022-10-16T21:46:54;0.10;;;0.10;;
13475;SDS011;6810;63.824;20.288;2022-10-16T21:49:41;0.10;;;0.10;;
13475;SDS011;6810;63.824;20.288;2022-10-16T21:52:28;0.10;;;0.10;;
13475;SDS011;6810;63.824;20.288;2022-10-16T21:55:15;0.03;;;0.03;;
13475;SDS011;6810;63.824;20.288;2022-10-16T21:58:02;0.17;;;0.10;;
13475;SDS011;6810;63.824;20.288;2022-10-16T22:00:49;0.10;;;0.00;;
13475;SDS011;6810;63.824;20.288;2022-10-16T22:03:36;0.00;;;0.00;;
13475;SDS011;6810;63.824;20.288;2022-10-16T22:06:24;0.03;;;0.03;;
13475;SDS011;6810;63.824;20.288;2022-10-16T22:09:12;0.00;;;0.00;;
13475;SDS011;6810;63.824;20.288;2022-10-16T22:11:59;0.00;;;0.00;;
13475;SDS011;6810;63.824;20.288;2022-10-16T22:14:46;0.20;;;0.00;;
13475;SDS011;6810;63.824;20.288;2022-10-16T22:17:33;0.57;;;0.10;;
13475;SDS011;6810;63.824;20.288;2022-10-16T22:20:20;0.10;;;0.00;;
